sensor_id;sensor_type;location;lat;lon;timestamp;temperature;humidity
11491;DHT22;5802;52.832;4.758;2024-02-26T00:02:07;24.50;41.60
11491;DHT22;5802;52.832;4.758;2024-02-26T00:04:35;24.50;41.60
11491;DHT22;5802;52.832;4.758;2024-02-26T00:07:02;24.50;41.50
11491;DHT22;5802;52.832;4.758;2024-02-26T00:09:29;24.50;41.60
11491;DHT22;5802;52.832;4.758;2024-02-26T00:11:56;24.50;41.60
11491;DHT22;5802;52.832;4.758;2024-02-26T00:14:23;24.50;41.50
11491;DHT22;5802;52.832;4.758;2024-02-26T00:16:50;24.50;41.50
11491;DHT22;5802;52.832;4.758;2024-02-26T00:19:17;24.50;41.50
11491;DHT22;5802;52.832;4.758;2024-02-26T00:21:45;24.50;41.50
11491;DHT22;5802;52.832;4.758;2024-02-26T00:24:12;24.50;41.50
11491;DHT22;5802;52.832;4.758;2024-02-26T00:26:39;24.50;41.50
11491;DHT22;5802;52.832;4.758;2024-02-26T00:29:06;24.50;41.50
11491;DHT22;5802;52.832;4.758;2024-02-26T00:31:33;24.50;41.50
11491;DHT22;5802;52.832;4.758;2024-02-26T00:34:00;24.50;41.50
11491;DHT22;5802;52.832;4.758;2024-02-26T00:36:27;24.50;41.50
11491;DHT22;5802;52.832;4.758;2024-02-26T00:38:55;24.50;41.50
11491;DHT22;5802;52.832;4.758;2024-02-26T00:41:22;24.50;41.50
11491;DHT22;5802;52.832;4.758;2024-02-26T00:43:49;24.50;41.50
11491;DHT22;5802;52.832;4.758;2024-02-26T00:46:16;24.50;41.50
11491;DHT22;5802;52.832;4.758;2024-02-26T00:48:43;24.40;41.40
11491;DHT22;5802;52.832;4.758;2024-02-26T00:51:10;24.40;41.40
11491;DHT22;5802;52.832;4.758;2024-02-26T00:53:36;24.40;41.40
11491;DHT22;5802;52.832;4.758;2024-02-26T00:56:05;24.40;41.40
11491;DHT22;5802;52.832;4.758;2024-02-26T00:58:32;24.40;41.40
11491;DHT22;5802;52.832;4.758;2024-02-26T01:00:59;24.40;41.30
11491;DHT22;5802;52.832;4.758;2024-02-26T01:03:26;24.40;41.40
11491;DHT22;5802;52.832;4.758;2024-02-26T01:05:53;24.40;41.40
11491;DHT22;5802;52.832;4.758;2024-02-26T01:08:19;24.40;41.40
11491;DHT22;5802;52.832;4.758;2024-02-26T01:10:46;24.40;41.30
11491;DHT22;5802;52.832;4.758;2024-02-26T01:13:14;24.40;41.30
11491;DHT22;5802;52.832;4.758;2024-02-26T01:15:41;24.40;41.30
11491;DHT22;5802;52.832;4.758;2024-02-26T01:18:09;24.40;41.30
11491;DHT22;5802;52.832;4.758;2024-02-26T01:20:36;24.40;41.30
11491;DHT22;5802;52.832;4.758;2024-02-26T01:23:03;24.40;41.30
11491;DHT22;5802;52.832;4.758;2024-02-26T01:25:30;24.40;41.30
11491;DHT22;5802;52.832;4.758;2024-02-26T01:27:57;24.40;41.30
11491;DHT22;5802;52.832;4.758;2024-02-26T01:30:25;24.40;41.30
11491;DHT22;5802;52.832;4.758;2024-02-26T01:32:52;24.40;41.30
11491;DHT22;5802;52.832;4.758;2024-02-26T01:35:19;24.40;41.90
11491;DHT22;5802;52.832;4.758;2024-02-26T01:37:46;24.40;41.30
11491;DHT22;5802;52.832;4.758;2024-02-26T01:40:13;24.40;41.20
11491;DHT22;5802;52.832;4.758;2024-02-26T01:42:43;24.30;41.20
11491;DHT22;5802;52.832;4.758;2024-02-26T01:45:13;24.30;41.20
11491;DHT22;5802;52.832;4.758;2024-02-26T01:47:48;24.30;41.10
11491;DHT22;5802;52.832;4.758;2024-02-26T01:50:16;24.30;41.10
11491;DHT22;5802;52.832;4.758;2024-02-26T01:52:43;24.30;41.10
11491;DHT22;5802;52.832;4.758;2024-02-26T01:55:11;24.30;41.10
11491;DHT22;5802;52.832;4.758;2024-02-26T01:57:39;24.30;41.20
11491;DHT22;5802;52.832;4.758;2024-02-26T02:00:07;24.30;41.10
11491;DHT22;5802;52.832;4.758;2024-02-26T02:02:35;24.30;41.10
11491;DHT22;5802;52.832;4.758;2024-02-26T02:05:07;24.30;41.10
11491;DHT22;5802;52.832;4.758;2024-02-26T02:07:35;24.30;41.70
11491;DHT22;5802;52.832;4.758;2024-02-26T02:10:04;24.30;41.10
11491;DHT22;5802;52.832;4.758;2024-02-26T02:12:32;24.30;41.10
11491;DHT22;5802;52.832;4.758;2024-02-26T02:14:59;24.30;41.10
11491;DHT22;5802;52.832;4.758;2024-02-26T02:17:27;24.30;41.10
11491;DHT22;5802;52.832;4.758;2024-02-26T02:19:54;24.30;41.10
11491;DHT22;5802;52.832;4.758;2024-02-26T02:22:22;24.30;41.10
11491;DHT22;5802;52.832;4.758;2024-02-26T02:24:51;24.30;41.00
11491;DHT22;5802;52.832;4.758;2024-02-26T02:27:18;24.30;41.00
11491;DHT22;5802;52.832;4.758;2024-02-26T02:29:46;24.30;41.00
11491;DHT22;5802;52.832;4.758;2024-02-26T02:32:14;24.30;41.00
11491;DHT22;5802;52.832;4.758;2024-02-26T02:34:43;24.30;40.90
11491;DHT22;5802;52.832;4.758;2024-02-26T02:37:09;24.30;40.90
11491;DHT22;5802;52.832;4.758;2024-02-26T02:39:38;24.30;41.00
11491;DHT22;5802;52.832;4.758;2024-02-26T02:42:05;24.20;40.90
11491;DHT22;5802;52.832;4.758;2024-02-26T02:44:32;24.20;40.90
11491;DHT22;5802;52.832;4.758;2024-02-26T02:46:59;24.20;40.90
11491;DHT22;5802;52.832;4.758;2024-02-26T02:49:25;24.20;40.90
11491;DHT22;5802;52.832;4.758;2024-02-26T02:51:52;24.20;41.00
11491;DHT22;5802;52.832;4.758;2024-02-26T02:54:20;24.20;40.90
11491;DHT22;5802;52.832;4.758;2024-02-26T02:56:48;24.20;40.90
11491;DHT22;5802;52.832;4.758;2024-02-26T02:59:15;24.20;40.90
11491;DHT22;5802;52.832;4.758;2024-02-26T03:01:42;24.20;40.90
11491;DHT22;5802;52.832;4.758;2024-02-26T03:04:09;24.20;40.90
11491;DHT22;5802;52.832;4.758;2024-02-26T03:06:35;24.20;40.90
11491;DHT22;5802;52.832;4.758;2024-02-26T03:09:03;24.20;40.80
11491;DHT22;5802;52.832;4.758;2024-02-26T03:11:29;24.20;40.90
11491;DHT22;5802;52.832;4.758;2024-02-26T03:13:58;24.20;40.90
11491;DHT22;5802;52.832;4.758;2024-02-26T03:16:24;24.20;40.90
11491;DHT22;5802;52.832;4.758;2024-02-26T03:18:51;24.20;40.80
11491;DHT22;5802;52.832;4.758;2024-02-26T03:21:18;24.20;40.80
11491;DHT22;5802;52.832;4.758;2024-02-26T03:23:45;24.20;40.70
11491;DHT22;5802;52.832;4.758;2024-02-26T03:26:12;24.20;40.80
11491;DHT22;5802;52.832;4.758;2024-02-26T03:28:40;24.20;41.40
11491;DHT22;5802;52.832;4.758;2024-02-26T03:31:08;24.20;40.70
11491;DHT22;5802;52.832;4.758;2024-02-26T03:33:36;24.20;40.70
11491;DHT22;5802;52.832;4.758;2024-02-26T03:36:03;24.20;40.70
11491;DHT22;5802;52.832;4.758;2024-02-26T03:38:30;24.20;40.70
11491;DHT22;5802;52.832;4.758;2024-02-26T03:40:57;24.20;40.70
11491;DHT22;5802;52.832;4.758;2024-02-26T03:43:24;24.20;40.70
11491;DHT22;5802;52.832;4.758;2024-02-26T03:45:51;24.10;40.60
11491;DHT22;5802;52.832;4.758;2024-02-26T03:48:20;24.10;40.60
11491;DHT22;5802;52.832;4.758;2024-02-26T03:50:47;24.10;40.60
11491;DHT22;5802;52.832;4.758;2024-02-26T03:53:13;24.10;40.70
11491;DHT22;5802;52.832;4.758;2024-02-26T03:55:40;24.10;40.60
11491;DHT22;5802;52.832;4.758;2024-02-26T03:58:08;24.10;40.60
11491;DHT22;5802;52.832;4.758;2024-02-26T04:00:35;24.10;40.60
11491;DHT22;5802;52.832;4.758;2024-02-26T04:03:01;24.10;40.60
11491;DHT22;5802;52.832;4.758;2024-02-26T04:05:30;24.10;40.60
11491;DHT22;5802;52.832;4.758;2024-02-26T04:07:57;24.10;41.20
11491;DHT22;5802;52.832;4.758;2024-02-26T04:10:24;24.10;40.60
11491;DHT22;5802;52.832;4.758;2024-02-26T04:12:51;24.10;40.60
11491;DHT22;5802;52.832;4.758;2024-02-26T04:15:17;24.10;40.60
11491;DHT22;5802;52.832;4.758;2024-02-26T04:17:44;24.10;40.50
11491;DHT22;5802;52.832;4.758;2024-02-26T04:20:14;24.10;40.50
11491;DHT22;5802;52.832;4.758;2024-02-26T04:22:44;24.10;40.50
11491;DHT22;5802;52.832;4.758;2024-02-26T04:25:11;24.10;40.60
11491;DHT22;5802;52.832;4.758;2024-02-26T04:27:39;24.10;40.50
11491;DHT22;5802;52.832;4.758;2024-02-26T04:30:06;24.10;40.50
11491;DHT22;5802;52.832;4.758;2024-02-26T04:32:33;24.00;40.40
11491;DHT22;5802;52.832;4.758;2024-02-26T04:35:01;24.00;41.10
11491;DHT22;5802;52.832;4.758;2024-02-26T04:37:28;24.00;40.50
11491;DHT22;5802;52.832;4.758;2024-02-26T04:39:58;24.00;40.50
11491;DHT22;5802;52.832;4.758;2024-02-26T04:42:25;24.00;40.50
11491;DHT22;5802;52.832;4.758;2024-02-26T04:44:52;24.00;40.40
11491;DHT22;5802;52.832;4.758;2024-02-26T04:47:19;24.00;40.40
11491;DHT22;5802;52.832;4.758;2024-02-26T04:49:47;24.00;40.40
11491;DHT22;5802;52.832;4.758;2024-02-26T04:52:14;24.00;40.50
11491;DHT22;5802;52.832;4.758;2024-02-26T04:54:41;24.00;40.50
11491;DHT22;5802;52.832;4.758;2024-02-26T04:57:09;24.00;40.50
11491;DHT22;5802;52.832;4.758;2024-02-26T04:59:36;24.00;40.50
11491;DHT22;5802;52.832;4.758;2024-02-26T05:02:03;24.00;40.50
11491;DHT22;5802;52.832;4.758;2024-02-26T05:04:30;24.00;40.50
11491;DHT22;5802;52.832;4.758;2024-02-26T05:06:57;24.00;40.50
11491;DHT22;5802;52.832;4.758;2024-02-26T05:09:24;24.00;40.50
11491;DHT22;5802;52.832;4.758;2024-02-26T05:11:51;24.00;40.50
11491;DHT22;5802;52.832;4.758;2024-02-26T05:14:19;24.00;40.40
11491;DHT22;5802;52.832;4.758;2024-02-26T05:16:47;24.00;40.50
11491;DHT22;5802;52.832;4.758;2024-02-26T05:19:14;24.00;40.40
11491;DHT22;5802;52.832;4.758;2024-02-26T05:21:41;24.00;40.40
11491;DHT22;5802;52.832;4.758;2024-02-26T05:24:09;24.00;40.40
11491;DHT22;5802;52.832;4.758;2024-02-26T05:26:36;24.00;40.40
11491;DHT22;5802;52.832;4.758;2024-02-26T05:29:03;24.00;40.40
11491;DHT22;5802;52.832;4.758;2024-02-26T05:31:32;24.00;40.40
11491;DHT22;5802;52.832;4.758;2024-02-26T05:33:58;24.00;40.40
11491;DHT22;5802;52.832;4.758;2024-02-26T05:36:25;24.00;40.40
11491;DHT22;5802;52.832;4.758;2024-02-26T05:38:54;24.00;40.40
11491;DHT22;5802;52.832;4.758;2024-02-26T05:41:21;24.00;40.40
11491;DHT22;5802;52.832;4.758;2024-02-26T05:43:51;24.00;40.30
11491;DHT22;5802;52.832;4.758;2024-02-26T05:46:18;24.00;40.40
11491;DHT22;5802;52.832;4.758;2024-02-26T05:48:47;24.00;40.40
11491;DHT22;5802;52.832;4.758;2024-02-26T05:51:14;24.00;40.30
11491;DHT22;5802;52.832;4.758;2024-02-26T05:53:41;24.00;40.30
11491;DHT22;5802;52.832;4.758;2024-02-26T05:56:08;23.90;40.30
11491;DHT22;5802;52.832;4.758;2024-02-26T05:58:37;23.90;40.30
11491;DHT22;5802;52.832;4.758;2024-02-26T06:01:04;23.90;40.30
11491;DHT22;5802;52.832;4.758;2024-02-26T06:03:31;23.90;40.30
11491;DHT22;5802;52.832;4.758;2024-02-26T06:05:59;23.90;40.30
11491;DHT22;5802;52.832;4.758;2024-02-26T06:08:26;23.90;40.30
11491;DHT22;5802;52.832;4.758;2024-02-26T06:10:53;23.90;40.30
11491;DHT22;5802;52.832;4.758;2024-02-26T06:13:20;23.90;40.20
11491;DHT22;5802;52.832;4.758;2024-02-26T06:15:47;23.90;40.20
11491;DHT22;5802;52.832;4.758;2024-02-26T06:18:14;23.90;40.20
11491;DHT22;5802;52.832;4.758;2024-02-26T06:20:41;23.90;40.30
11491;DHT22;5802;52.832;4.758;2024-02-26T06:23:09;23.90;40.20
11491;DHT22;5802;52.832;4.758;2024-02-26T06:25:36;23.90;40.30
11491;DHT22;5802;52.832;4.758;2024-02-26T06:28:04;23.90;40.40
11491;DHT22;5802;52.832;4.758;2024-02-26T06:30:31;23.90;40.20
11491;DHT22;5802;52.832;4.758;2024-02-26T06:32:58;23.90;40.30
11491;DHT22;5802;52.832;4.758;2024-02-26T06:35:24;23.90;40.20
11491;DHT22;5802;52.832;4.758;2024-02-26T06:37:51;23.90;40.20
11491;DHT22;5802;52.832;4.758;2024-02-26T06:40:20;23.90;40.90
11491;DHT22;5802;52.832;4.758;2024-02-26T06:42:47;23.90;40.20
11491;DHT22;5802;52.832;4.758;2024-02-26T06:45:14;23.90;40.30
11491;DHT22;5802;52.832;4.758;2024-02-26T06:47:40;23.90;40.30
11491;DHT22;5802;52.832;4.758;2024-02-26T06:50:09;23.90;40.20
11491;DHT22;5802;52.832;4.758;2024-02-26T06:52:36;23.90;40.20
11491;DHT22;5802;52.832;4.758;2024-02-26T06:55:03;23.90;40.30
11491;DHT22;5802;52.832;4.758;2024-02-26T06:57:32;23.90;40.20
11491;DHT22;5802;52.832;4.758;2024-02-26T06:59:58;23.90;40.20
11491;DHT22;5802;52.832;4.758;2024-02-26T07:02:25;23.90;40.20
11491;DHT22;5802;52.832;4.758;2024-02-26T07:04:52;23.90;40.20
11491;DHT22;5802;52.832;4.758;2024-02-26T07:07:19;23.90;40.20
11491;DHT22;5802;52.832;4.758;2024-02-26T07:09:48;23.90;40.20
11491;DHT22;5802;52.832;4.758;2024-02-26T07:12:14;23.90;40.20
11491;DHT22;5802;52.832;4.758;2024-02-26T07:14:44;23.90;40.20
11491;DHT22;5802;52.832;4.758;2024-02-26T07:17:11;23.90;40.10
11491;DHT22;5802;52.832;4.758;2024-02-26T07:19:38;23.90;40.10
11491;DHT22;5802;52.832;4.758;2024-02-26T07:22:05;23.90;40.10
11491;DHT22;5802;52.832;4.758;2024-02-26T07:24:32;23.90;40.10
11491;DHT22;5802;52.832;4.758;2024-02-26T07:26:58;23.90;40.10
11491;DHT22;5802;52.832;4.758;2024-02-26T07:29:25;23.90;40.10
11491;DHT22;5802;52.832;4.758;2024-02-26T07:31:54;23.90;40.10
11491;DHT22;5802;52.832;4.758;2024-02-26T07:34:20;23.90;40.10
11491;DHT22;5802;52.832;4.758;2024-02-26T07:36:53;23.90;40.10
11491;DHT22;5802;52.832;4.758;2024-02-26T07:39:20;23.90;40.10
11491;DHT22;5802;52.832;4.758;2024-02-26T07:41:48;23.90;40.20
11491;DHT22;5802;52.832;4.758;2024-02-26T07:44:17;23.90;40.10
11491;DHT22;5802;52.832;4.758;2024-02-26T07:46:44;23.90;40.10
11491;DHT22;5802;52.832;4.758;2024-02-26T07:49:12;23.90;40.10
11491;DHT22;5802;52.832;4.758;2024-02-26T07:51:39;23.90;40.10
11491;DHT22;5802;52.832;4.758;2024-02-26T07:54:06;23.90;40.10
11491;DHT22;5802;52.832;4.758;2024-02-26T07:56:33;23.90;40.10
11491;DHT22;5802;52.832;4.758;2024-02-26T07:58:59;23.90;40.10
11491;DHT22;5802;52.832;4.758;2024-02-26T08:01:26;23.90;40.00
11491;DHT22;5802;52.832;4.758;2024-02-26T08:03:53;23.90;40.00
11491;DHT22;5802;52.832;4.758;2024-02-26T08:06:23;23.90;40.10
11491;DHT22;5802;52.832;4.758;2024-02-26T08:08:50;23.90;40.10
11491;DHT22;5802;52.832;4.758;2024-02-26T08:11:17;23.90;40.10
11491;DHT22;5802;52.832;4.758;2024-02-26T08:13:43;23.90;40.10
11491;DHT22;5802;52.832;4.758;2024-02-26T08:16:10;23.90;40.10
11491;DHT22;5802;52.832;4.758;2024-02-26T08:18:37;23.90;40.10
11491;DHT22;5802;52.832;4.758;2024-02-26T08:21:05;23.90;40.50
11491;DHT22;5802;52.832;4.758;2024-02-26T08:23:36;23.90;40.70
11491;DHT22;5802;52.832;4.758;2024-02-26T08:26:03;23.90;41.30
11491;DHT22;5802;52.832;4.758;2024-02-26T08:28:32;23.90;41.30
11491;DHT22;5802;52.832;4.758;2024-02-26T08:30:59;24.00;41.50
11491;DHT22;5802;52.832;4.758;2024-02-26T08:33:26;24.00;41.90
11491;DHT22;5802;52.832;4.758;2024-02-26T08:35:53;24.00;42.00
11491;DHT22;5802;52.832;4.758;2024-02-26T08:38:20;24.00;41.90
11491;DHT22;5802;52.832;4.758;2024-02-26T08:40:49;24.00;42.10
11491;DHT22;5802;52.832;4.758;2024-02-26T08:43:15;24.00;42.20
11491;DHT22;5802;52.832;4.758;2024-02-26T08:45:43;24.00;42.20
11491;DHT22;5802;52.832;4.758;2024-02-26T08:48:10;24.00;42.30
11491;DHT22;5802;52.832;4.758;2024-02-26T08:50:36;24.00;42.30
11491;DHT22;5802;52.832;4.758;2024-02-26T08:53:03;24.00;42.70
11491;DHT22;5802;52.832;4.758;2024-02-26T08:55:31;24.10;42.40
11491;DHT22;5802;52.832;4.758;2024-02-26T08:57:59;24.10;42.50
11491;DHT22;5802;52.832;4.758;2024-02-26T09:00:26;24.10;42.70
11491;DHT22;5802;52.832;4.758;2024-02-26T09:02:53;24.10;42.50
11491;DHT22;5802;52.832;4.758;2024-02-26T09:05:20;24.10;42.50
11491;DHT22;5802;52.832;4.758;2024-02-26T09:07:47;24.10;42.70
11491;DHT22;5802;52.832;4.758;2024-02-26T09:10:14;24.10;42.60
11491;DHT22;5802;52.832;4.758;2024-02-26T09:12:40;24.20;42.60
11491;DHT22;5802;52.832;4.758;2024-02-26T09:15:09;24.20;42.60
11491;DHT22;5802;52.832;4.758;2024-02-26T09:17:37;24.20;42.60
11491;DHT22;5802;52.832;4.758;2024-02-26T09:20:06;24.20;42.70
11491;DHT22;5802;52.832;4.758;2024-02-26T09:22:34;24.20;42.70
11491;DHT22;5802;52.832;4.758;2024-02-26T09:25:04;24.20;42.80
11491;DHT22;5802;52.832;4.758;2024-02-26T09:27:32;24.20;42.70
11491;DHT22;5802;52.832;4.758;2024-02-26T09:29:59;24.20;42.70
11491;DHT22;5802;52.832;4.758;2024-02-26T09:32:27;24.20;42.60
11491;DHT22;5802;52.832;4.758;2024-02-26T09:34:54;24.30;42.70
11491;DHT22;5802;52.832;4.758;2024-02-26T09:37:21;24.30;42.70
11491;DHT22;5802;52.832;4.758;2024-02-26T09:39:47;24.30;42.70
11491;DHT22;5802;52.832;4.758;2024-02-26T09:42:15;24.30;42.70
11491;DHT22;5802;52.832;4.758;2024-02-26T09:44:45;24.30;42.80
11491;DHT22;5802;52.832;4.758;2024-02-26T09:47:13;24.30;42.70
11491;DHT22;5802;52.832;4.758;2024-02-26T09:49:44;24.30;42.70
11491;DHT22;5802;52.832;4.758;2024-02-26T09:52:13;24.30;42.60
11491;DHT22;5802;52.832;4.758;2024-02-26T09:54:41;24.30;42.70
11491;DHT22;5802;52.832;4.758;2024-02-26T09:57:10;24.40;42.70
11491;DHT22;5802;52.832;4.758;2024-02-26T09:59:42;24.40;42.60
11491;DHT22;5802;52.832;4.758;2024-02-26T10:02:12;24.40;42.60
11491;DHT22;5802;52.832;4.758;2024-02-26T10:04:40;24.40;42.50
11491;DHT22;5802;52.832;4.758;2024-02-26T10:07:11;24.50;42.60
11491;DHT22;5802;52.832;4.758;2024-02-26T10:09:38;24.50;42.50
11491;DHT22;5802;52.832;4.758;2024-02-26T10:12:08;24.50;42.50
11491;DHT22;5802;52.832;4.758;2024-02-26T10:14:35;24.50;42.60
11491;DHT22;5802;52.832;4.758;2024-02-26T10:17:02;24.50;42.50
11491;DHT22;5802;52.832;4.758;2024-02-26T10:19:30;24.50;42.50
11491;DHT22;5802;52.832;4.758;2024-02-26T10:21:57;24.50;42.50
11491;DHT22;5802;52.832;4.758;2024-02-26T10:24:26;24.50;42.60
11491;DHT22;5802;52.832;4.758;2024-02-26T10:26:54;24.60;42.70
11491;DHT22;5802;52.832;4.758;2024-02-26T10:29:24;24.60;42.60
11491;DHT22;5802;52.832;4.758;2024-02-26T10:31:52;24.60;42.50
11491;DHT22;5802;52.832;4.758;2024-02-26T10:34:19;24.60;42.40
11491;DHT22;5802;52.832;4.758;2024-02-26T10:36:49;24.60;42.10
11491;DHT22;5802;52.832;4.758;2024-02-26T10:39:16;24.60;42.00
11491;DHT22;5802;52.832;4.758;2024-02-26T10:41:45;24.60;42.00
11491;DHT22;5802;52.832;4.758;2024-02-26T10:44:12;24.70;42.10
11491;DHT22;5802;52.832;4.758;2024-02-26T10:46:40;24.70;42.10
11491;DHT22;5802;52.832;4.758;2024-02-26T10:49:13;24.70;42.10
11491;DHT22;5802;52.832;4.758;2024-02-26T10:51:43;24.70;42.80
11491;DHT22;5802;52.832;4.758;2024-02-26T10:54:15;24.70;42.40
11491;DHT22;5802;52.832;4.758;2024-02-26T10:56:43;24.70;42.20
11491;DHT22;5802;52.832;4.758;2024-02-26T10:59:13;24.70;42.20
11491;DHT22;5802;52.832;4.758;2024-02-26T11:01:41;24.70;42.20
11491;DHT22;5802;52.832;4.758;2024-02-26T11:04:12;24.80;42.30
11491;DHT22;5802;52.832;4.758;2024-02-26T11:06:40;24.80;42.20
11491;DHT22;5802;52.832;4.758;2024-02-26T11:09:08;24.80;42.20
11491;DHT22;5802;52.832;4.758;2024-02-26T11:11:38;24.80;42.20
11491;DHT22;5802;52.832;4.758;2024-02-26T11:14:09;24.80;42.30
11491;DHT22;5802;52.832;4.758;2024-02-26T11:16:38;24.80;42.20
11491;DHT22;5802;52.832;4.758;2024-02-26T11:19:07;24.80;42.40
11491;DHT22;5802;52.832;4.758;2024-02-26T11:21:35;24.90;42.40
11491;DHT22;5802;52.832;4.758;2024-02-26T11:24:08;24.90;42.30
11491;DHT22;5802;52.832;4.758;2024-02-26T11:26:39;24.90;42.30
11491;DHT22;5802;52.832;4.758;2024-02-26T11:29:09;24.90;42.20
11491;DHT22;5802;52.832;4.758;2024-02-26T11:31:38;24.90;42.20
11491;DHT22;5802;52.832;4.758;2024-02-26T11:34:06;24.90;42.20
11491;DHT22;5802;52.832;4.758;2024-02-26T11:36:34;24.90;42.30
11491;DHT22;5802;52.832;4.758;2024-02-26T11:39:02;24.90;42.20
11491;DHT22;5802;52.832;4.758;2024-02-26T11:41:30;24.90;42.20
11491;DHT22;5802;52.832;4.758;2024-02-26T11:43:59;25.00;42.20
11491;DHT22;5802;52.832;4.758;2024-02-26T11:46:29;24.90;42.30
11491;DHT22;5802;52.832;4.758;2024-02-26T11:48:58;24.90;42.20
11491;DHT22;5802;52.832;4.758;2024-02-26T11:51:26;25.00;42.20
11491;DHT22;5802;52.832;4.758;2024-02-26T11:53:54;25.00;42.20
11491;DHT22;5802;52.832;4.758;2024-02-26T11:56:24;25.00;42.20
11491;DHT22;5802;52.832;4.758;2024-02-26T11:58:59;25.00;42.10
11491;DHT22;5802;52.832;4.758;2024-02-26T12:01:44;25.00;42.10
11491;DHT22;5802;52.832;4.758;2024-02-26T12:04:15;25.00;42.10
11491;DHT22;5802;52.832;4.758;2024-02-26T12:06:47;25.00;42.10
11491;DHT22;5802;52.832;4.758;2024-02-26T12:09:36;25.00;42.10
11491;DHT22;5802;52.832;4.758;2024-02-26T12:12:04;25.00;42.30
11491;DHT22;5802;52.832;4.758;2024-02-26T12:14:34;25.00;42.10
11491;DHT22;5802;52.832;4.758;2024-02-26T12:17:03;25.00;42.10
11491;DHT22;5802;52.832;4.758;2024-02-26T12:19:33;25.00;42.10
11491;DHT22;5802;52.832;4.758;2024-02-26T12:22:00;25.00;42.10
11491;DHT22;5802;52.832;4.758;2024-02-26T12:24:27;25.00;42.20
11491;DHT22;5802;52.832;4.758;2024-02-26T12:26:54;25.00;42.30
11491;DHT22;5802;52.832;4.758;2024-02-26T12:29:21;25.00;42.10
11491;DHT22;5802;52.832;4.758;2024-02-26T12:31:48;25.00;42.70
11491;DHT22;5802;52.832;4.758;2024-02-26T12:34:18;25.00;42.10
11491;DHT22;5802;52.832;4.758;2024-02-26T12:36:45;25.00;42.00
11491;DHT22;5802;52.832;4.758;2024-02-26T12:39:12;25.00;42.10
11491;DHT22;5802;52.832;4.758;2024-02-26T12:41:39;25.00;42.10
11491;DHT22;5802;52.832;4.758;2024-02-26T12:44:07;25.00;42.10
11491;DHT22;5802;52.832;4.758;2024-02-26T12:46:34;25.10;42.20
11491;DHT22;5802;52.832;4.758;2024-02-26T12:49:01;25.10;42.40
11491;DHT22;5802;52.832;4.758;2024-02-26T12:51:30;25.10;42.10
11491;DHT22;5802;52.832;4.758;2024-02-26T12:53:57;25.10;42.10
11491;DHT22;5802;52.832;4.758;2024-02-26T12:56:25;25.10;42.10
11491;DHT22;5802;52.832;4.758;2024-02-26T12:58:53;25.10;42.00
11491;DHT22;5802;52.832;4.758;2024-02-26T13:01:23;25.10;42.00
11491;DHT22;5802;52.832;4.758;2024-02-26T13:03:51;25.10;41.90
11491;DHT22;5802;52.832;4.758;2024-02-26T13:06:19;25.10;42.00
11491;DHT22;5802;52.832;4.758;2024-02-26T13:08:49;25.10;42.00
11491;DHT22;5802;52.832;4.758;2024-02-26T13:11:16;25.10;42.00
11491;DHT22;5802;52.832;4.758;2024-02-26T13:13:47;25.10;41.90
11491;DHT22;5802;52.832;4.758;2024-02-26T13:16:15;25.10;41.90
11491;DHT22;5802;52.832;4.758;2024-02-26T13:18:42;25.10;41.90
11491;DHT22;5802;52.832;4.758;2024-02-26T13:21:11;25.10;41.90
11491;DHT22;5802;52.832;4.758;2024-02-26T13:23:39;25.20;42.00
11491;DHT22;5802;52.832;4.758;2024-02-26T13:26:08;25.20;42.60
11491;DHT22;5802;52.832;4.758;2024-02-26T13:28:35;25.10;41.90
11491;DHT22;5802;52.832;4.758;2024-02-26T13:31:02;25.10;41.80
11491;DHT22;5802;52.832;4.758;2024-02-26T13:33:31;25.20;41.90
11491;DHT22;5802;52.832;4.758;2024-02-26T13:35:59;25.20;41.90
11491;DHT22;5802;52.832;4.758;2024-02-26T13:38:27;25.20;41.80
11491;DHT22;5802;52.832;4.758;2024-02-26T13:40:55;25.20;41.80
11491;DHT22;5802;52.832;4.758;2024-02-26T13:43:23;25.20;42.00
11491;DHT22;5802;52.832;4.758;2024-02-26T13:45:51;25.10;41.90
11491;DHT22;5802;52.832;4.758;2024-02-26T13:48:18;25.20;41.80
11491;DHT22;5802;52.832;4.758;2024-02-26T13:50:45;25.20;41.90
11491;DHT22;5802;52.832;4.758;2024-02-26T13:53:12;25.20;41.90
11491;DHT22;5802;52.832;4.758;2024-02-26T13:55:40;25.20;42.00
11491;DHT22;5802;52.832;4.758;2024-02-26T13:58:08;25.20;41.90
11491;DHT22;5802;52.832;4.758;2024-02-26T14:00:39;25.20;41.90
11491;DHT22;5802;52.832;4.758;2024-02-26T14:03:07;25.20;42.00
11491;DHT22;5802;52.832;4.758;2024-02-26T14:05:34;25.20;41.90
11491;DHT22;5802;52.832;4.758;2024-02-26T14:08:01;25.20;41.80
11491;DHT22;5802;52.832;4.758;2024-02-26T14:10:28;25.20;41.90
11491;DHT22;5802;52.832;4.758;2024-02-26T14:12:55;25.20;41.90
11491;DHT22;5802;52.832;4.758;2024-02-26T14:15:22;25.20;41.80
11491;DHT22;5802;52.832;4.758;2024-02-26T14:17:52;25.20;41.90
11491;DHT22;5802;52.832;4.758;2024-02-26T14:20:22;25.20;41.80
11491;DHT22;5802;52.832;4.758;2024-02-26T14:22:49;25.20;41.80
11491;DHT22;5802;52.832;4.758;2024-02-26T14:25:17;25.20;42.00
11491;DHT22;5802;52.832;4.758;2024-02-26T14:27:43;25.20;41.80
11491;DHT22;5802;52.832;4.758;2024-02-26T14:30:11;25.20;41.90
11491;DHT22;5802;52.832;4.758;2024-02-26T14:32:38;25.20;42.00
11491;DHT22;5802;52.832;4.758;2024-02-26T14:35:08;25.20;41.90
11491;DHT22;5802;52.832;4.758;2024-02-26T14:37:35;25.20;42.00
11491;DHT22;5802;52.832;4.758;2024-02-26T14:40:03;25.20;41.80
11491;DHT22;5802;52.832;4.758;2024-02-26T14:42:31;25.20;41.80
11491;DHT22;5802;52.832;4.758;2024-02-26T14:44:59;25.20;42.00
11491;DHT22;5802;52.832;4.758;2024-02-26T14:47:26;25.20;41.90
11491;DHT22;5802;52.832;4.758;2024-02-26T14:49:54;25.20;41.90
11491;DHT22;5802;52.832;4.758;2024-02-26T14:52:22;25.20;41.80
11491;DHT22;5802;52.832;4.758;2024-02-26T14:54:49;25.20;41.80
11491;DHT22;5802;52.832;4.758;2024-02-26T14:57:17;25.20;41.80
11491;DHT22;5802;52.832;4.758;2024-02-26T14:59:44;25.20;41.90
11491;DHT22;5802;52.832;4.758;2024-02-26T15:02:10;25.20;41.90
11491;DHT22;5802;52.832;4.758;2024-02-26T15:04:37;25.10;41.80
11491;DHT22;5802;52.832;4.758;2024-02-26T15:07:04;25.20;41.90
11491;DHT22;5802;52.832;4.758;2024-02-26T15:09:33;25.20;41.90
11491;DHT22;5802;52.832;4.758;2024-02-26T15:12:01;25.20;41.80
11491;DHT22;5802;52.832;4.758;2024-02-26T15:14:28;25.20;41.80
11491;DHT22;5802;52.832;4.758;2024-02-26T15:16:55;25.20;41.90
11491;DHT22;5802;52.832;4.758;2024-02-26T15:19:22;25.20;41.90
11491;DHT22;5802;52.832;4.758;2024-02-26T15:21:48;25.20;41.90
11491;DHT22;5802;52.832;4.758;2024-02-26T15:24:15;25.10;41.90
11491;DHT22;5802;52.832;4.758;2024-02-26T15:26:44;25.20;42.10
11491;DHT22;5802;52.832;4.758;2024-02-26T15:29:11;25.20;41.90
11491;DHT22;5802;52.832;4.758;2024-02-26T15:31:38;25.20;41.90
11491;DHT22;5802;52.832;4.758;2024-02-26T15:34:05;25.10;41.90
11491;DHT22;5802;52.832;4.758;2024-02-26T15:36:34;25.20;42.00
11491;DHT22;5802;52.832;4.758;2024-02-26T15:39:01;25.10;41.90
11491;DHT22;5802;52.832;4.758;2024-02-26T15:41:28;25.10;41.90
11491;DHT22;5802;52.832;4.758;2024-02-26T15:43:56;25.10;41.90
11491;DHT22;5802;52.832;4.758;2024-02-26T15:46:23;25.10;41.90
11491;DHT22;5802;52.832;4.758;2024-02-26T15:48:50;25.10;41.90